sensor_id;sensor_type;location;lat;lon;timestamp;P1;durP1;ratioP1;P2;durP2;ratioP2
10845;SDS011;5476;51.540;7.186;2023-10-13T00:01:20;15.95;;;11.55;;
10845;SDS011;5476;51.540;7.186;2023-10-13T00:03:47;13.57;;;11.40;;
10845;SDS011;5476;51.540;7.186;2023-10-13T00:06:14;16.98;;;11.05;;
10845;SDS011;5476;51.540;7.186;2023-10-13T00:08:41;14.63;;;10.88;;
10845;SDS011;5476;51.540;7.186;2023-10-13T00:11:12;12.95;;;10.30;;
10845;SDS011;5476;51.540;7.186;2023-10-13T00:13:40;19.08;;;10.88;;
10845;SDS011;5476;51.540;7.186;2023-10-13T00:16:08;16.85;;;11.10;;
10845;SDS011;5476;51.540;7.186;2023-10-13T00:18:41;18.73;;;11.35;;
10845;SDS011;5476;51.540;7.186;2023-10-13T00:21:09;16.65;;;10.75;;
10845;SDS011;5476;51.540;7.186;2023-10-13T00:23:38;12.70;;;10.52;;
10845;SDS011;5476;51.540;7.186;2023-10-13T00:26:08;13.68;;;11.00;;
10845;SDS011;5476;51.540;7.186;2023-10-13T00:28:39;13.48;;;10.57;;
10845;SDS011;5476;51.540;7.186;2023-10-13T00:31:11;14.70;;;10.10;;
10845;SDS011;5476;51.540;7.186;2023-10-13T00:33:39;15.70;;;10.60;;
10845;SDS011;5476;51.540;7.186;2023-10-13T00:36:07;12.85;;;10.68;;
10845;SDS011;5476;51.540;7.186;2023-10-13T00:38:42;15.48;;;10.23;;
10845;SDS011;5476;51.540;7.186;2023-10-13T00:41:13;16.65;;;9.85;;
10845;SDS011;5476;51.540;7.186;2023-10-13T00:43:46;15.07;;;10.40;;
10845;SDS011;5476;51.540;7.186;2023-10-13T00:46:30;16.83;;;10.13;;
10845;SDS011;5476;51.540;7.186;2023-10-13T00:48:59;15.40;;;10.88;;
10845;SDS011;5476;51.540;7.186;2023-10-13T00:51:27;15.02;;;9.98;;
10845;SDS011;5476;51.540;7.186;2023-10-13T00:54:02;12.98;;;9.63;;
10845;SDS011;5476;51.540;7.186;2023-10-13T00:56:32;15.07;;;10.15;;
10845;SDS011;5476;51.540;7.186;2023-10-13T00:59:07;14.38;;;9.63;;
10845;SDS011;5476;51.540;7.186;2023-10-13T01:01:35;13.23;;;9.68;;
10845;SDS011;5476;51.540;7.186;2023-10-13T01:04:02;14.43;;;9.60;;
10845;SDS011;5476;51.540;7.186;2023-10-13T01:06:33;13.98;;;9.68;;
10845;SDS011;5476;51.540;7.186;2023-10-13T01:09:03;13.63;;;9.65;;
10845;SDS011;5476;51.540;7.186;2023-10-13T01:11:36;12.85;;;9.38;;
10845;SDS011;5476;51.540;7.186;2023-10-13T01:14:04;15.77;;;10.18;;
10845;SDS011;5476;51.540;7.186;2023-10-13T01:16:32;13.75;;;10.02;;
10845;SDS011;5476;51.540;7.186;2023-10-13T01:19:01;15.90;;;10.13;;
10845;SDS011;5476;51.540;7.186;2023-10-13T01:21:30;11.23;;;9.35;;
10845;SDS011;5476;51.540;7.186;2023-10-13T01:24:00;14.38;;;9.45;;
10845;SDS011;5476;51.540;7.186;2023-10-13T01:26:26;16.98;;;10.32;;
10845;SDS011;5476;51.540;7.186;2023-10-13T01:28:56;12.95;;;9.82;;
10845;SDS011;5476;51.540;7.186;2023-10-13T01:31:23;13.82;;;10.13;;
10845;SDS011;5476;51.540;7.186;2023-10-13T01:33:54;13.50;;;10.38;;
10845;SDS011;5476;51.540;7.186;2023-10-13T01:36:23;16.27;;;10.73;;
10845;SDS011;5476;51.540;7.186;2023-10-13T01:38:51;12.52;;;10.20;;
10845;SDS011;5476;51.540;7.186;2023-10-13T01:41:20;12.93;;;10.63;;
10845;SDS011;5476;51.540;7.186;2023-10-13T01:43:47;14.13;;;10.32;;
10845;SDS011;5476;51.540;7.186;2023-10-13T01:46:14;12.50;;;10.60;;
10845;SDS011;5476;51.540;7.186;2023-10-13T01:48:41;15.82;;;10.82;;
10845;SDS011;5476;51.540;7.186;2023-10-13T01:51:09;10.93;;;9.68;;
10845;SDS011;5476;51.540;7.186;2023-10-13T01:53:39;13.80;;;10.40;;
10845;SDS011;5476;51.540;7.186;2023-10-13T01:56:07;15.27;;;9.80;;
10845;SDS011;5476;51.540;7.186;2023-10-13T01:58:40;14.52;;;10.55;;
10845;SDS011;5476;51.540;7.186;2023-10-13T02:01:08;13.38;;;9.70;;
10845;SDS011;5476;51.540;7.186;2023-10-13T02:03:35;14.38;;;10.07;;
10845;SDS011;5476;51.540;7.186;2023-10-13T02:06:06;14.10;;;9.85;;
10845;SDS011;5476;51.540;7.186;2023-10-13T02:08:35;13.60;;;9.35;;
10845;SDS011;5476;51.540;7.186;2023-10-13T02:11:08;13.73;;;9.43;;
10845;SDS011;5476;51.540;7.186;2023-10-13T02:13:34;14.60;;;10.40;;
10845;SDS011;5476;51.540;7.186;2023-10-13T02:16:08;11.95;;;10.02;;
10845;SDS011;5476;51.540;7.186;2023-10-13T02:18:34;14.65;;;9.85;;
10845;SDS011;5476;51.540;7.186;2023-10-13T02:21:06;15.50;;;10.00;;
10845;SDS011;5476;51.540;7.186;2023-10-13T02:23:38;15.05;;;9.95;;
10845;SDS011;5476;51.540;7.186;2023-10-13T02:26:09;15.60;;;10.18;;
10845;SDS011;5476;51.540;7.186;2023-10-13T02:28:39;13.07;;;10.38;;
10845;SDS011;5476;51.540;7.186;2023-10-13T02:31:08;18.67;;;10.77;;
10845;SDS011;5476;51.540;7.186;2023-10-13T02:33:34;15.75;;;10.95;;
10845;SDS011;5476;51.540;7.186;2023-10-13T02:36:09;12.63;;;10.57;;
10845;SDS011;5476;51.540;7.186;2023-10-13T02:38:37;15.00;;;10.82;;
10845;SDS011;5476;51.540;7.186;2023-10-13T02:41:11;16.63;;;11.70;;
10845;SDS011;5476;51.540;7.186;2023-10-13T02:43:37;16.15;;;10.73;;
10845;SDS011;5476;51.540;7.186;2023-10-13T02:46:04;14.18;;;11.43;;
10845;SDS011;5476;51.540;7.186;2023-10-13T02:48:31;14.55;;;10.38;;
10845;SDS011;5476;51.540;7.186;2023-10-13T02:51:05;14.52;;;10.23;;
10845;SDS011;5476;51.540;7.186;2023-10-13T02:53:40;14.77;;;10.85;;
10845;SDS011;5476;51.540;7.186;2023-10-13T02:56:11;12.77;;;10.38;;
10845;SDS011;5476;51.540;7.186;2023-10-13T02:58:38;15.18;;;10.13;;
10845;SDS011;5476;51.540;7.186;2023-10-13T03:01:10;14.73;;;10.35;;
10845;SDS011;5476;51.540;7.186;2023-10-13T03:03:47;13.07;;;9.93;;
10845;SDS011;5476;51.540;7.186;2023-10-13T03:06:17;12.02;;;8.98;;
10845;SDS011;5476;51.540;7.186;2023-10-13T03:08:47;12.07;;;9.70;;
10845;SDS011;5476;51.540;7.186;2023-10-13T03:11:14;15.85;;;9.85;;
10845;SDS011;5476;51.540;7.186;2023-10-13T03:13:46;15.98;;;10.60;;
10845;SDS011;5476;51.540;7.186;2023-10-13T03:16:13;14.43;;;9.63;;
10845;SDS011;5476;51.540;7.186;2023-10-13T03:18:42;13.80;;;9.82;;
10845;SDS011;5476;51.540;7.186;2023-10-13T03:21:20;14.45;;;10.20;;
10845;SDS011;5476;51.540;7.186;2023-10-13T03:23:57;12.30;;;9.35;;
10845;SDS011;5476;51.540;7.186;2023-10-13T03:26:30;12.55;;;10.30;;
10845;SDS011;5476;51.540;7.186;2023-10-13T03:29:01;14.80;;;10.00;;
10845;SDS011;5476;51.540;7.186;2023-10-13T03:31:33;12.27;;;10.35;;
10845;SDS011;5476;51.540;7.186;2023-10-13T03:34:03;15.30;;;10.60;;
10845;SDS011;5476;51.540;7.186;2023-10-13T03:36:35;16.00;;;10.07;;
10845;SDS011;5476;51.540;7.186;2023-10-13T03:39:16;14.75;;;11.00;;
10845;SDS011;5476;51.540;7.186;2023-10-13T03:41:43;15.38;;;11.18;;
10845;SDS011;5476;51.540;7.186;2023-10-13T03:44:18;15.40;;;11.18;;
10845;SDS011;5476;51.540;7.186;2023-10-13T03:46:45;14.60;;;10.90;;
10845;SDS011;5476;51.540;7.186;2023-10-13T03:49:13;16.35;;;11.07;;
10845;SDS011;5476;51.540;7.186;2023-10-13T03:51:47;14.45;;;10.80;;
10845;SDS011;5476;51.540;7.186;2023-10-13T03:54:14;14.77;;;11.35;;
10845;SDS011;5476;51.540;7.186;2023-10-13T03:56:42;15.05;;;11.75;;
10845;SDS011;5476;51.540;7.186;2023-10-13T03:59:10;15.35;;;11.35;;
10845;SDS011;5476;51.540;7.186;2023-10-13T04:01:45;12.10;;;10.80;;
10845;SDS011;5476;51.540;7.186;2023-10-13T04:04:18;12.32;;;11.00;;
10845;SDS011;5476;51.540;7.186;2023-10-13T04:07:01;12.02;;;10.80;;
10845;SDS011;5476;51.540;7.186;2023-10-13T04:10:01;13.52;;;10.98;;
10845;SDS011;5476;51.540;7.186;2023-10-13T04:12:59;14.98;;;11.82;;
10845;SDS011;5476;51.540;7.186;2023-10-13T04:15:43;13.95;;;11.63;;
10845;SDS011;5476;51.540;7.186;2023-10-13T04:18:39;14.35;;;11.25;;
10845;SDS011;5476;51.540;7.186;2023-10-13T04:21:28;14.15;;;10.65;;
10845;SDS011;5476;51.540;7.186;2023-10-13T04:24:07;14.23;;;10.52;;
10845;SDS011;5476;51.540;7.186;2023-10-13T04:26:34;13.05;;;11.05;;
10845;SDS011;5476;51.540;7.186;2023-10-13T04:29:22;11.95;;;10.07;;
10845;SDS011;5476;51.540;7.186;2023-10-13T04:31:55;17.15;;;10.30;;
10845;SDS011;5476;51.540;7.186;2023-10-13T04:34:25;13.85;;;10.82;;
10845;SDS011;5476;51.540;7.186;2023-10-13T04:36:53;12.38;;;10.18;;
10845;SDS011;5476;51.540;7.186;2023-10-13T04:39:37;15.35;;;10.15;;
10845;SDS011;5476;51.540;7.186;2023-10-13T04:42:04;12.38;;;10.70;;
10845;SDS011;5476;51.540;7.186;2023-10-13T04:44:38;17.08;;;10.50;;
10845;SDS011;5476;51.540;7.186;2023-10-13T04:47:13;12.82;;;10.13;;
10845;SDS011;5476;51.540;7.186;2023-10-13T04:49:47;12.40;;;9.93;;
10845;SDS011;5476;51.540;7.186;2023-10-13T04:52:18;14.10;;;10.40;;
10845;SDS011;5476;51.540;7.186;2023-10-13T04:55:05;14.90;;;9.93;;
10845;SDS011;5476;51.540;7.186;2023-10-13T04:57:52;13.43;;;10.02;;
10845;SDS011;5476;51.540;7.186;2023-10-13T05:00:36;16.77;;;10.43;;
10845;SDS011;5476;51.540;7.186;2023-10-13T05:03:20;15.48;;;10.05;;
10845;SDS011;5476;51.540;7.186;2023-10-13T05:06:18;13.82;;;11.02;;
10845;SDS011;5476;51.540;7.186;2023-10-13T05:09:02;16.08;;;11.23;;
10845;SDS011;5476;51.540;7.186;2023-10-13T05:11:48;14.45;;;10.43;;
10845;SDS011;5476;51.540;7.186;2023-10-13T05:14:33;15.07;;;10.80;;
10845;SDS011;5476;51.540;7.186;2023-10-13T05:17:25;15.65;;;10.13;;
10845;SDS011;5476;51.540;7.186;2023-10-13T05:20:09;15.30;;;10.27;;
10845;SDS011;5476;51.540;7.186;2023-10-13T05:22:54;17.55;;;11.15;;
10845;SDS011;5476;51.540;7.186;2023-10-13T05:25:38;15.52;;;11.57;;
10845;SDS011;5476;51.540;7.186;2023-10-13T05:28:24;14.82;;;10.60;;
10845;SDS011;5476;51.540;7.186;2023-10-13T05:31:09;14.25;;;11.63;;
10845;SDS011;5476;51.540;7.186;2023-10-13T05:33:53;18.50;;;12.07;;
10845;SDS011;5476;51.540;7.186;2023-10-13T05:36:37;19.60;;;11.40;;
10845;SDS011;5476;51.540;7.186;2023-10-13T05:39:22;16.00;;;11.50;;
10845;SDS011;5476;51.540;7.186;2023-10-13T05:42:09;17.17;;;12.27;;
10845;SDS011;5476;51.540;7.186;2023-10-13T05:44:55;18.13;;;12.32;;
10845;SDS011;5476;51.540;7.186;2023-10-13T05:47:42;14.07;;;11.63;;
10845;SDS011;5476;51.540;7.186;2023-10-13T05:50:26;17.27;;;11.77;;
10845;SDS011;5476;51.540;7.186;2023-10-13T05:53:10;16.67;;;11.77;;
10845;SDS011;5476;51.540;7.186;2023-10-13T05:55:54;18.08;;;11.73;;
10845;SDS011;5476;51.540;7.186;2023-10-13T05:58:44;15.90;;;11.77;;
10845;SDS011;5476;51.540;7.186;2023-10-13T06:01:29;18.50;;;11.40;;
10845;SDS011;5476;51.540;7.186;2023-10-13T06:04:13;14.93;;;11.30;;
10845;SDS011;5476;51.540;7.186;2023-10-13T06:06:58;16.35;;;11.70;;
10845;SDS011;5476;51.540;7.186;2023-10-13T06:09:42;14.52;;;10.50;;
10845;SDS011;5476;51.540;7.186;2023-10-13T06:12:26;15.38;;;10.73;;
10845;SDS011;5476;51.540;7.186;2023-10-13T06:15:10;15.30;;;9.85;;
10845;SDS011;5476;51.540;7.186;2023-10-13T06:17:56;14.10;;;9.65;;
10845;SDS011;5476;51.540;7.186;2023-10-13T06:20:45;11.80;;;8.65;;
10845;SDS011;5476;51.540;7.186;2023-10-13T06:23:30;11.70;;;7.80;;
10845;SDS011;5476;51.540;7.186;2023-10-13T06:26:14;12.25;;;8.73;;
10845;SDS011;5476;51.540;7.186;2023-10-13T06:28:58;12.30;;;7.95;;
10845;SDS011;5476;51.540;7.186;2023-10-13T06:31:24;12.90;;;7.72;;
10845;SDS011;5476;51.540;7.186;2023-10-13T06:33:53;13.65;;;7.28;;
10845;SDS011;5476;51.540;7.186;2023-10-13T06:36:21;12.00;;;8.30;;
10845;SDS011;5476;51.540;7.186;2023-10-13T06:38:48;13.63;;;7.47;;
10845;SDS011;5476;51.540;7.186;2023-10-13T06:41:41;12.60;;;8.20;;
10845;SDS011;5476;51.540;7.186;2023-10-13T06:44:08;13.05;;;8.38;;
10845;SDS011;5476;51.540;7.186;2023-10-13T06:46:40;16.15;;;8.23;;
10845;SDS011;5476;51.540;7.186;2023-10-13T06:49:09;13.32;;;7.43;;
10845;SDS011;5476;51.540;7.186;2023-10-13T06:51:38;14.80;;;7.25;;
10845;SDS011;5476;51.540;7.186;2023-10-13T06:54:05;13.52;;;6.82;;
10845;SDS011;5476;51.540;7.186;2023-10-13T06:56:44;13.07;;;6.80;;
10845;SDS011;5476;51.540;7.186;2023-10-13T06:59:11;11.68;;;6.72;;
10845;SDS011;5476;51.540;7.186;2023-10-13T07:01:39;14.07;;;7.00;;
10845;SDS011;5476;51.540;7.186;2023-10-13T07:04:07;12.05;;;7.13;;
10845;SDS011;5476;51.540;7.186;2023-10-13T07:06:40;14.75;;;7.32;;
10845;SDS011;5476;51.540;7.186;2023-10-13T07:09:09;12.15;;;6.90;;
10845;SDS011;5476;51.540;7.186;2023-10-13T07:11:54;12.02;;;7.13;;
10845;SDS011;5476;51.540;7.186;2023-10-13T07:14:26;12.85;;;6.65;;
10845;SDS011;5476;51.540;7.186;2023-10-13T07:16:55;14.52;;;7.57;;
10845;SDS011;5476;51.540;7.186;2023-10-13T07:19:25;10.00;;;6.70;;
10845;SDS011;5476;51.540;7.186;2023-10-13T07:21:54;11.93;;;6.53;;
10845;SDS011;5476;51.540;7.186;2023-10-13T07:24:24;12.65;;;6.82;;
10845;SDS011;5476;51.540;7.186;2023-10-13T07:26:52;13.77;;;7.68;;
10845;SDS011;5476;51.540;7.186;2023-10-13T07:29:28;10.43;;;6.53;;
10845;SDS011;5476;51.540;7.186;2023-10-13T07:31:55;12.40;;;6.63;;
10845;SDS011;5476;51.540;7.186;2023-10-13T07:34:23;14.07;;;6.97;;
10845;SDS011;5476;51.540;7.186;2023-10-13T07:36:56;12.70;;;7.35;;
10845;SDS011;5476;51.540;7.186;2023-10-13T07:39:25;14.02;;;7.40;;
10845;SDS011;5476;51.540;7.186;2023-10-13T07:41:58;12.00;;;6.82;;
10845;SDS011;5476;51.540;7.186;2023-10-13T07:44:31;12.35;;;7.60;;
10845;SDS011;5476;51.540;7.186;2023-10-13T07:46:58;11.93;;;7.93;;
10845;SDS011;5476;51.540;7.186;2023-10-13T07:49:29;12.65;;;7.78;;
10845;SDS011;5476;51.540;7.186;2023-10-13T07:51:57;15.05;;;7.28;;
10845;SDS011;5476;51.540;7.186;2023-10-13T07:54:41;16.00;;;8.18;;
10845;SDS011;5476;51.540;7.186;2023-10-13T07:57:09;13.10;;;8.05;;
10845;SDS011;5476;51.540;7.186;2023-10-13T07:59:39;12.45;;;7.65;;
10845;SDS011;5476;51.540;7.186;2023-10-13T08:02:12;11.15;;;7.07;;
10845;SDS011;5476;51.540;7.186;2023-10-13T08:04:59;12.80;;;6.90;;
10845;SDS011;5476;51.540;7.186;2023-10-13T08:07:29;12.48;;;6.88;;
10845;SDS011;5476;51.540;7.186;2023-10-13T08:09:56;11.93;;;7.47;;
10845;SDS011;5476;51.540;7.186;2023-10-13T08:12:24;11.85;;;5.97;;
10845;SDS011;5476;51.540;7.186;2023-10-13T08:14:52;13.27;;;6.68;;
10845;SDS011;5476;51.540;7.186;2023-10-13T08:17:36;12.95;;;6.35;;
10845;SDS011;5476;51.540;7.186;2023-10-13T08:20:10;12.60;;;6.40;;
10845;SDS011;5476;51.540;7.186;2023-10-13T08:22:38;14.40;;;6.70;;
10845;SDS011;5476;51.540;7.186;2023-10-13T08:25:12;11.20;;;5.90;;
10845;SDS011;5476;51.540;7.186;2023-10-13T08:27:45;8.55;;;6.35;;
10845;SDS011;5476;51.540;7.186;2023-10-13T08:30:30;10.23;;;5.78;;
10845;SDS011;5476;51.540;7.186;2023-10-13T08:33:07;15.20;;;5.68;;
10845;SDS011;5476;51.540;7.186;2023-10-13T08:35:44;11.52;;;5.57;;
10845;SDS011;5476;51.540;7.186;2023-10-13T08:38:30;8.90;;;5.35;;
10845;SDS011;5476;51.540;7.186;2023-10-13T08:41:15;10.43;;;5.20;;
10845;SDS011;5476;51.540;7.186;2023-10-13T08:44:02;11.32;;;5.35;;
10845;SDS011;5476;51.540;7.186;2023-10-13T08:46:31;14.68;;;5.80;;
10845;SDS011;5476;51.540;7.186;2023-10-13T08:49:17;11.60;;;4.90;;
10845;SDS011;5476;51.540;7.186;2023-10-13T08:51:49;9.10;;;4.90;;
10845;SDS011;5476;51.540;7.186;2023-10-13T08:54:30;10.43;;;4.90;;
10845;SDS011;5476;51.540;7.186;2023-10-13T08:57:11;10.13;;;5.07;;
10845;SDS011;5476;51.540;7.186;2023-10-13T08:59:58;13.85;;;5.47;;
10845;SDS011;5476;51.540;7.186;2023-10-13T09:02:45;12.27;;;5.95;;
10845;SDS011;5476;51.540;7.186;2023-10-13T09:05:41;13.48;;;5.75;;
10845;SDS011;5476;51.540;7.186;2023-10-13T09:08:27;15.23;;;5.82;;
10845;SDS011;5476;51.540;7.186;2023-10-13T09:11:01;14.02;;;5.97;;
10845;SDS011;5476;51.540;7.186;2023-10-13T09:13:37;11.80;;;5.40;;
10845;SDS011;5476;51.540;7.186;2023-10-13T09:16:10;11.27;;;5.63;;
10845;SDS011;5476;51.540;7.186;2023-10-13T09:18:47;11.45;;;5.65;;
10845;SDS011;5476;51.540;7.186;2023-10-13T09:21:14;10.75;;;5.68;;
10845;SDS011;5476;51.540;7.186;2023-10-13T09:24:17;12.43;;;6.30;;
10845;SDS011;5476;51.540;7.186;2023-10-13T09:27:03;14.88;;;5.97;;
10845;SDS011;5476;51.540;7.186;2023-10-13T09:29:38;8.63;;;4.82;;
10845;SDS011;5476;51.540;7.186;2023-10-13T09:32:07;13.43;;;5.80;;
10845;SDS011;5476;51.540;7.186;2023-10-13T09:34:40;10.43;;;5.15;;
10845;SDS011;5476;51.540;7.186;2023-10-13T09:37:13;13.82;;;5.60;;
10845;SDS011;5476;51.540;7.186;2023-10-13T09:39:47;11.75;;;5.35;;
10845;SDS011;5476;51.540;7.186;2023-10-13T09:42:18;12.88;;;5.00;;
10845;SDS011;5476;51.540;7.186;2023-10-13T09:44:48;10.20;;;4.95;;
10845;SDS011;5476;51.540;7.186;2023-10-13T09:47:21;11.05;;;5.30;;
10845;SDS011;5476;51.540;7.186;2023-10-13T09:49:57;11.48;;;5.05;;
10845;SDS011;5476;51.540;7.186;2023-10-13T09:52:30;10.02;;;5.28;;
10845;SDS011;5476;51.540;7.186;2023-10-13T09:55:15;8.52;;;4.88;;
10845;SDS011;5476;51.540;7.186;2023-10-13T09:57:51;13.93;;;5.15;;
10845;SDS011;5476;51.540;7.186;2023-10-13T10:00:23;11.77;;;4.82;;
10845;SDS011;5476;51.540;7.186;2023-10-13T10:03:24;10.30;;;5.03;;
10845;SDS011;5476;51.540;7.186;2023-10-13T10:06:05;13.82;;;5.03;;
10845;SDS011;5476;51.540;7.186;2023-10-13T10:08:31;12.48;;;5.80;;
10845;SDS011;5476;51.540;7.186;2023-10-13T10:11:23;10.38;;;5.80;;
10845;SDS011;5476;51.540;7.186;2023-10-13T10:14:11;12.30;;;5.55;;
10845;SDS011;5476;51.540;7.186;2023-10-13T10:16:47;9.75;;;5.47;;
10845;SDS011;5476;51.540;7.186;2023-10-13T10:19:26;9.25;;;5.30;;
10845;SDS011;5476;51.540;7.186;2023-10-13T10:22:00;12.30;;;6.53;;
10845;SDS011;5476;51.540;7.186;2023-10-13T10:24:35;10.65;;;5.75;;
10845;SDS011;5476;51.540;7.186;2023-10-13T10:27:03;13.73;;;5.65;;
10845;SDS011;5476;51.540;7.186;2023-10-13T10:29:31;9.10;;;5.93;;
10845;SDS011;5476;51.540;7.186;2023-10-13T10:31:59;12.10;;;6.10;;
10845;SDS011;5476;51.540;7.186;2023-10-13T10:34:33;11.55;;;5.78;;
10845;SDS011;5476;51.540;7.186;2023-10-13T10:37:00;11.65;;;6.68;;
10845;SDS011;5476;51.540;7.186;2023-10-13T10:39:34;10.63;;;5.50;;
10845;SDS011;5476;51.540;7.186;2023-10-13T10:42:10;13.57;;;6.53;;
10845;SDS011;5476;51.540;7.186;2023-10-13T10:44:49;11.27;;;6.03;;
10845;SDS011;5476;51.540;7.186;2023-10-13T10:47:20;10.65;;;6.10;;
10845;SDS011;5476;51.540;7.186;2023-10-13T10:49:57;10.80;;;5.80;;
10845;SDS011;5476;51.540;7.186;2023-10-13T10:52:25;14.60;;;8.65;;
10845;SDS011;5476;51.540;7.186;2023-10-13T10:55:02;11.95;;;5.82;;
10845;SDS011;5476;51.540;7.186;2023-10-13T10:57:32;11.30;;;6.15;;
10845;SDS011;5476;51.540;7.186;2023-10-13T11:00:02;14.55;;;6.70;;
10845;SDS011;5476;51.540;7.186;2023-10-13T11:02:36;12.95;;;6.65;;
10845;SDS011;5476;51.540;7.186;2023-10-13T11:05:05;10.60;;;5.90;;
10845;SDS011;5476;51.540;7.186;2023-10-13T11:07:34;10.25;;;6.18;;
10845;SDS011;5476;51.540;7.186;2023-10-13T11:10:08;12.05;;;6.53;;
10845;SDS011;5476;51.540;7.186;2023-10-13T11:12:37;9.80;;;6.43;;
10845;SDS011;5476;51.540;7.186;2023-10-13T11:15:05;11.30;;;6.78;;
10845;SDS011;5476;51.540;7.186;2023-10-13T11:17:39;15.23;;;6.85;;
10845;SDS011;5476;51.540;7.186;2023-10-13T11:20:10;12.85;;;6.40;;
10845;SDS011;5476;51.540;7.186;2023-10-13T11:22:57;14.88;;;6.57;;
10845;SDS011;5476;51.540;7.186;2023-10-13T11:25:25;14.27;;;6.88;;
10845;SDS011;5476;51.540;7.186;2023-10-13T11:28:09;10.00;;;6.90;;
10845;SDS011;5476;51.540;7.186;2023-10-13T11:30:42;12.75;;;7.03;;
10845;SDS011;5476;51.540;7.186;2023-10-13T11:33:14;11.13;;;6.72;;
10845;SDS011;5476;51.540;7.186;2023-10-13T11:35:47;10.13;;;6.80;;
10845;SDS011;5476;51.540;7.186;2023-10-13T11:38:27;14.32;;;7.15;;
10845;SDS011;5476;51.540;7.186;2023-10-13T11:41:01;14.07;;;6.80;;
10845;SDS011;5476;51.540;7.186;2023-10-13T11:43:38;8.55;;;6.22;;
10845;SDS011;5476;51.540;7.186;2023-10-13T11:46:26;10.32;;;6.65;;
10845;SDS011;5476;51.540;7.186;2023-10-13T11:49:22;11.23;;;6.95;;
10845;SDS011;5476;51.540;7.186;2023-10-13T11:55:16;10.85;;;6.88;;
10845;SDS011;5476;51.540;7.186;2023-10-13T11:58:31;9.75;;;6.53;;
10845;SDS011;5476;51.540;7.186;2023-10-13T12:01:10;13.80;;;7.32;;
10845;SDS011;5476;51.540;7.186;2023-10-13T12:04:08;11.50;;;7.18;;
10845;SDS011;5476;51.540;7.186;2023-10-13T12:07:08;14.00;;;6.85;;
10845;SDS011;5476;51.540;7.186;2023-10-13T12:09:52;12.95;;;6.68;;
10845;SDS011;5476;51.540;7.186;2023-10-13T12:12:45;13.77;;;6.22;;
10845;SDS011;5476;51.540;7.186;2023-10-13T12:15:18;13.85;;;7.00;;
10845;SDS011;5476;51.540;7.186;2023-10-13T12:18:02;12.02;;;6.43;;
10845;SDS011;5476;51.540;7.186;2023-10-13T12:23:34;11.95;;;6.47;;
10845;SDS011;5476;51.540;7.186;2023-10-13T12:29:15;13.35;;;6.03;;
10845;SDS011;5476;51.540;7.186;2023-10-13T12:31:47;16.00;;;6.78;;
10845;SDS011;5476;51.540;7.186;2023-10-13T12:34:26;13.52;;;6.45;;
10845;SDS011;5476;51.540;7.186;2023-10-13T12:37:14;12.25;;;6.45;;
10845;SDS011;5476;51.540;7.186;2023-10-13T12:40:03;10.00;;;5.93;;
10845;SDS011;5476;51.540;7.186;2023-10-13T12:42:45;11.43;;;5.80;;
10845;SDS011;5476;51.540;7.186;2023-10-13T12:45:30;10.65;;;5.85;;
10845;SDS011;5476;51.540;7.186;2023-10-13T12:48:15;15.60;;;6.60;;
10845;SDS011;5476;51.540;7.186;2023-10-13T12:51:00;15.38;;;6.03;;
10845;SDS011;5476;51.540;7.186;2023-10-13T12:53:45;14.40;;;6.28;;
10845;SDS011;5476;51.540;7.186;2023-10-13T12:56:13;14.40;;;6.40;;
10845;SDS011;5476;51.540;7.186;2023-10-13T12:58:41;17.10;;;6.38;;
10845;SDS011;5476;51.540;7.186;2023-10-13T13:01:17;15.88;;;6.50;;
10845;SDS011;5476;51.540;7.186;2023-10-13T13:03:45;11.68;;;6.15;;
10845;SDS011;5476;51.540;7.186;2023-10-13T13:06:17;16.15;;;6.10;;
10845;SDS011;5476;51.540;7.186;2023-10-13T13:08:50;14.65;;;5.70;;
10845;SDS011;5476;51.540;7.186;2023-10-13T13:11:17;15.88;;;6.10;;
10845;SDS011;5476;51.540;7.186;2023-10-13T13:13:46;14.43;;;5.97;;
10845;SDS011;5476;51.540;7.186;2023-10-13T13:16:13;14.23;;;6.78;;
10845;SDS011;5476;51.540;7.186;2023-10-13T13:18:40;17.98;;;6.20;;
10845;SDS011;5476;51.540;7.186;2023-10-13T13:21:08;12.90;;;5.43;;
10845;SDS011;5476;51.540;7.186;2023-10-13T13:23:37;17.17;;;6.25;;
10845;SDS011;5476;51.540;7.186;2023-10-13T13:26:05;12.25;;;5.88;;
10845;SDS011;5476;51.540;7.186;2023-10-13T13:28:44;11.18;;;6.00;;
10845;SDS011;5476;51.540;7.186;2023-10-13T13:31:15;12.10;;;6.03;;
10845;SDS011;5476;51.540;7.186;2023-10-13T13:33:50;15.23;;;6.15;;
10845;SDS011;5476;51.540;7.186;2023-10-13T13:36:17;15.27;;;6.40;;
10845;SDS011;5476;51.540;7.186;2023-10-13T13:38:44;13.38;;;5.63;;
10845;SDS011;5476;51.540;7.186;2023-10-13T13:41:13;14.25;;;6.15;;
10845;SDS011;5476;51.540;7.186;2023-10-13T13:43:42;15.20;;;6.10;;
10845;SDS011;5476;51.540;7.186;2023-10-13T13:46:21;14.55;;;6.20;;
10845;SDS011;5476;51.540;7.186;2023-10-13T13:48:52;14.15;;;6.07;;
10845;SDS011;5476;51.540;7.186;2023-10-13T13:51:24;13.10;;;6.18;;
10845;SDS011;5476;51.540;7.186;2023-10-13T13:53:57;13.00;;;6.13;;
10845;SDS011;5476;51.540;7.186;2023-10-13T13:56:25;12.50;;;5.63;;
10845;SDS011;5476;51.540;7.186;2023-10-13T13:58:54;16.02;;;6.72;;
10845;SDS011;5476;51.540;7.186;2023-10-13T14:01:22;14.35;;;6.28;;
10845;SDS011;5476;51.540;7.186;2023-10-13T14:03:51;14.75;;;6.03;;
10845;SDS011;5476;51.540;7.186;2023-10-13T14:06:22;16.38;;;6.60;;
10845;SDS011;5476;51.540;7.186;2023-10-13T14:08:52;13.38;;;6.03;;
10845;SDS011;5476;51.540;7.186;2023-10-13T14:11:21;14.68;;;5.97;;
10845;SDS011;5476;51.540;7.186;2023-10-13T14:14:03;13.00;;;5.50;;
10845;SDS011;5476;51.540;7.186;2023-10-13T14:16:38;11.05;;;5.72;;
10845;SDS011;5476;51.540;7.186;2023-10-13T14:19:09;13.45;;;5.32;;
10845;SDS011;5476;51.540;7.186;2023-10-13T14:21:37;14.82;;;6.00;;
10845;SDS011;5476;51.540;7.186;2023-10-13T14:24:04;15.05;;;6.57;;
10845;SDS011;5476;51.540;7.186;2023-10-13T14:26:38;16.77;;;5.88;;
10845;SDS011;5476;51.540;7.186;2023-10-13T14:29:07;12.43;;;5.97;;
10845;SDS011;5476;51.540;7.186;2023-10-13T14:31:40;18.75;;;5.93;;
10845;SDS011;5476;51.540;7.186;2023-10-13T14:34:08;19.63;;;6.38;;
10845;SDS011;5476;51.540;7.186;2023-10-13T14:36:36;12.55;;;5.68;;
10845;SDS011;5476;51.540;7.186;2023-10-13T14:39:04;13.75;;;5.80;;
10845;SDS011;5476;51.540;7.186;2023-10-13T14:41:34;16.85;;;6.05;;
10845;SDS011;5476;51.540;7.186;2023-10-13T14:44:01;14.45;;;6.75;;
10845;SDS011;5476;51.540;7.186;2023-10-13T14:46:32;18.23;;;6.18;;
10845;SDS011;5476;51.540;7.186;2023-10-13T14:49:02;14.63;;;5.78;;
10845;SDS011;5476;51.540;7.186;2023-10-13T14:51:29;14.95;;;6.18;;
10845;SDS011;5476;51.540;7.186;2023-10-13T14:53:56;14.40;;;6.30;;
10845;SDS011;5476;51.540;7.186;2023-10-13T14:56:25;15.10;;;5.65;;
10845;SDS011;5476;51.540;7.186;2023-10-13T14:58:53;11.23;;;5.50;;
10845;SDS011;5476;51.540;7.186;2023-10-13T15:01:21;14.30;;;5.97;;
10845;SDS011;5476;51.540;7.186;2023-10-13T15:03:52;15.57;;;5.70;;
10845;SDS011;5476;51.540;7.186;2023-10-13T15:06:23;14.63;;;6.18;;
10845;SDS011;5476;51.540;7.186;2023-10-13T15:08:54;12.68;;;5.60;;
10845;SDS011;5476;51.540;7.186;2023-10-13T15:11:22;15.45;;;5.85;;
10845;SDS011;5476;51.540;7.186;2023-10-13T15:13:51;13.60;;;6.22;;
10845;SDS011;5476;51.540;7.186;2023-10-13T15:16:19;16.10;;;5.85;;
10845;SDS011;5476;51.540;7.186;2023-10-13T15:18:48;15.95;;;6.13;;
10845;SDS011;5476;51.540;7.186;2023-10-13T15:21:26;16.20;;;6.07;;
10845;SDS011;5476;51.540;7.186;2023-10-13T15:23:59;12.02;;;5.35;;
10845;SDS011;5476;51.540;7.186;2023-10-13T15:26:29;13.45;;;6.45;;
10845;SDS011;5476;51.540;7.186;2023-10-13T15:28:57;17.23;;;6.68;;
10845;SDS011;5476;51.540;7.186;2023-10-13T15:31:25;14.63;;;6.32;;
10845;SDS011;5476;51.540;7.186;2023-10-13T15:34:02;11.70;;;5.78;;
10845;SDS011;5476;51.540;7.186;2023-10-13T15:36:33;11.63;;;6.10;;